Balham, United Kingdom
Current Conditions -  °F | °C
As of 12:20 AM on Thursday 29 Jan 2015 (Local Time) from EGLC Reporting Station
Few Clouds Few Clouds  
Wind Chill: 28°   Ceiling: Unl
Heat Index: 37°   Visibility: 6mi
Dew Point: 30°   Wind: 16mph
Humidity: 75%   Direction: 240°WSW
Pressure: 29.47"   Gusts: NA
Location:  51.45°N, 0.14°W
Report Text: EGLC 290020Z AUTO 24014KT 9999 FEW020/// 03/M01 Q0998
Loading
Personal Weather Stations






























Interactive Weather Map New forecast layout! Learn more

10-Day Weather Forecast

Advertisements
Track Severe Weather on mobile